sensor_id;sensor_type;location;lat;lon;timestamp;P1;durP1;ratioP1;P2;durP2;ratioP2
19205;SDS011;59358;52.134;5.596;2023-04-01T00:01:28;23.92;;;15.93;;
19205;SDS011;59358;52.134;5.596;2023-04-01T00:03:55;22.85;;;15.15;;
19205;SDS011;59358;52.134;5.596;2023-04-01T00:06:23;25.30;;;15.68;;
19205;SDS011;59358;52.134;5.596;2023-04-01T00:08:50;25.10;;;15.35;;
19205;SDS011;59358;52.134;5.596;2023-04-01T00:11:18;26.80;;;16.02;;
19205;SDS011;59358;52.134;5.596;2023-04-01T00:13:46;28.85;;;16.15;;
19205;SDS011;59358;52.134;5.596;2023-04-01T00:16:14;34.22;;;17.50;;
19205;SDS011;59358;52.134;5.596;2023-04-01T00:18:41;31.30;;;17.17;;
19205;SDS011;59358;52.134;5.596;2023-04-01T00:21:07;30.17;;;17.65;;
19205;SDS011;59358;52.134;5.596;2023-04-01T00:23:36;38.85;;;18.60;;
19205;SDS011;59358;52.134;5.596;2023-04-01T00:26:02;35.60;;;19.55;;
19205;SDS011;59358;52.134;5.596;2023-04-01T00:28:30;36.15;;;18.73;;
19205;SDS011;59358;52.134;5.596;2023-04-01T00:30:57;33.45;;;20.35;;
19205;SDS011;59358;52.134;5.596;2023-04-01T00:33:23;36.92;;;19.10;;
19205;SDS011;59358;52.134;5.596;2023-04-01T00:35:50;36.63;;;18.88;;
19205;SDS011;59358;52.134;5.596;2023-04-01T00:38:17;37.85;;;18.65;;
19205;SDS011;59358;52.134;5.596;2023-04-01T00:40:45;38.58;;;18.52;;
19205;SDS011;59358;52.134;5.596;2023-04-01T00:43:13;39.05;;;19.45;;
19205;SDS011;59358;52.134;5.596;2023-04-01T00:45:44;40.78;;;19.40;;
19205;SDS011;59358;52.134;5.596;2023-04-01T00:48:13;38.63;;;17.90;;
19205;SDS011;59358;52.134;5.596;2023-04-01T00:50:44;43.30;;;21.13;;
19205;SDS011;59358;52.134;5.596;2023-04-01T00:53:14;43.53;;;19.52;;
19205;SDS011;59358;52.134;5.596;2023-04-01T00:55:45;39.70;;;19.73;;
19205;SDS011;59358;52.134;5.596;2023-04-01T00:58:20;47.35;;;22.33;;
19205;SDS011;59358;52.134;5.596;2023-04-01T01:00:50;51.40;;;25.23;;
19205;SDS011;59358;52.134;5.596;2023-04-01T01:03:18;53.90;;;22.90;;
19205;SDS011;59358;52.134;5.596;2023-04-01T01:05:57;53.65;;;24.45;;
19205;SDS011;59358;52.134;5.596;2023-04-01T01:08:38;59.92;;;25.77;;
19205;SDS011;59358;52.134;5.596;2023-04-01T01:11:29;61.67;;;26.52;;
19205;SDS011;59358;52.134;5.596;2023-04-01T01:14:04;59.67;;;27.40;;
19205;SDS011;59358;52.134;5.596;2023-04-01T01:16:39;62.70;;;27.52;;
19205;SDS011;59358;52.134;5.596;2023-04-01T01:19:14;64.80;;;28.00;;
19205;SDS011;59358;52.134;5.596;2023-04-01T01:22:02;64.43;;;27.70;;
19205;SDS011;59358;52.134;5.596;2023-04-01T01:24:44;54.58;;;27.33;;
19205;SDS011;59358;52.134;5.596;2023-04-01T01:27:28;60.70;;;28.30;;
19205;SDS011;59358;52.134;5.596;2023-04-01T01:33:02;72.40;;;29.77;;
19205;SDS011;59358;52.134;5.596;2023-04-01T01:35:41;71.55;;;29.20;;
19205;SDS011;59358;52.134;5.596;2023-04-01T01:38:13;70.75;;;30.75;;
19205;SDS011;59358;52.134;5.596;2023-04-01T01:40:43;64.55;;;29.50;;
19205;SDS011;59358;52.134;5.596;2023-04-01T01:43:13;78.45;;;31.70;;
19205;SDS011;59358;52.134;5.596;2023-04-01T01:45:44;63.08;;;29.45;;
19205;SDS011;59358;52.134;5.596;2023-04-01T01:48:15;70.97;;;30.45;;
19205;SDS011;59358;52.134;5.596;2023-04-01T01:50:44;74.10;;;29.23;;
19205;SDS011;59358;52.134;5.596;2023-04-01T01:53:14;63.58;;;28.30;;
19205;SDS011;59358;52.134;5.596;2023-04-01T01:55:41;58.55;;;26.42;;
19205;SDS011;59358;52.134;5.596;2023-04-01T01:58:12;54.55;;;24.70;;
19205;SDS011;59358;52.134;5.596;2023-04-01T02:00:45;54.35;;;25.80;;
19205;SDS011;59358;52.134;5.596;2023-04-01T02:03:16;53.65;;;24.27;;
19205;SDS011;59358;52.134;5.596;2023-04-01T02:05:47;50.85;;;25.10;;
19205;SDS011;59358;52.134;5.596;2023-04-01T02:08:17;51.67;;;23.35;;
19205;SDS011;59358;52.134;5.596;2023-04-01T02:10:49;47.38;;;21.92;;
19205;SDS011;59358;52.134;5.596;2023-04-01T02:13:24;41.38;;;21.73;;
19205;SDS011;59358;52.134;5.596;2023-04-01T02:15:56;45.88;;;22.80;;
19205;SDS011;59358;52.134;5.596;2023-04-01T02:18:27;46.70;;;24.85;;
19205;SDS011;59358;52.134;5.596;2023-04-01T02:20:57;45.67;;;23.98;;
19205;SDS011;59358;52.134;5.596;2023-04-01T02:23:26;47.20;;;21.95;;
19205;SDS011;59358;52.134;5.596;2023-04-01T02:25:54;45.88;;;23.92;;
19205;SDS011;59358;52.134;5.596;2023-04-01T02:28:21;49.75;;;23.30;;
19205;SDS011;59358;52.134;5.596;2023-04-01T02:30:50;47.90;;;23.80;;
19205;SDS011;59358;52.134;5.596;2023-04-01T02:33:18;44.83;;;23.00;;
19205;SDS011;59358;52.134;5.596;2023-04-01T02:35:46;43.33;;;22.02;;
19205;SDS011;59358;52.134;5.596;2023-04-01T02:38:14;43.92;;;22.08;;
19205;SDS011;59358;52.134;5.596;2023-04-01T02:40:45;43.20;;;22.35;;
19205;SDS011;59358;52.134;5.596;2023-04-01T02:43:13;43.03;;;23.05;;
19205;SDS011;59358;52.134;5.596;2023-04-01T02:45:41;42.78;;;22.02;;
19205;SDS011;59358;52.134;5.596;2023-04-01T02:48:08;45.90;;;22.65;;
19205;SDS011;59358;52.134;5.596;2023-04-01T02:50:35;44.40;;;22.63;;
19205;SDS011;59358;52.134;5.596;2023-04-01T02:53:01;38.58;;;21.05;;
19205;SDS011;59358;52.134;5.596;2023-04-01T02:55:32;36.65;;;18.33;;
19205;SDS011;59358;52.134;5.596;2023-04-01T02:57:59;32.13;;;18.05;;
19205;SDS011;59358;52.134;5.596;2023-04-01T03:00:26;31.00;;;17.23;;
19205;SDS011;59358;52.134;5.596;2023-04-01T03:02:53;32.58;;;17.33;;
19205;SDS011;59358;52.134;5.596;2023-04-01T03:05:21;27.13;;;16.58;;
19205;SDS011;59358;52.134;5.596;2023-04-01T03:07:48;25.13;;;15.93;;
19205;SDS011;59358;52.134;5.596;2023-04-01T03:10:14;27.98;;;17.38;;
19205;SDS011;59358;52.134;5.596;2023-04-01T03:12:43;26.73;;;16.25;;
19205;SDS011;59358;52.134;5.596;2023-04-01T03:15:10;33.42;;;17.80;;
19205;SDS011;59358;52.134;5.596;2023-04-01T03:17:39;33.47;;;17.98;;
19205;SDS011;59358;52.134;5.596;2023-04-01T03:20:07;31.00;;;17.92;;
19205;SDS011;59358;52.134;5.596;2023-04-01T03:22:35;30.35;;;18.25;;
19205;SDS011;59358;52.134;5.596;2023-04-01T03:25:02;29.73;;;17.20;;
19205;SDS011;59358;52.134;5.596;2023-04-01T03:27:30;31.10;;;17.25;;
19205;SDS011;59358;52.134;5.596;2023-04-01T03:29:58;29.02;;;17.15;;
19205;SDS011;59358;52.134;5.596;2023-04-01T03:32:24;28.27;;;16.50;;
19205;SDS011;59358;52.134;5.596;2023-04-01T03:34:52;30.85;;;17.40;;
19205;SDS011;59358;52.134;5.596;2023-04-01T03:37:19;26.85;;;15.35;;
19205;SDS011;59358;52.134;5.596;2023-04-01T03:39:46;25.25;;;15.27;;
19205;SDS011;59358;52.134;5.596;2023-04-01T03:42:12;27.10;;;15.52;;
19205;SDS011;59358;52.134;5.596;2023-04-01T03:44:39;27.10;;;15.13;;
19205;SDS011;59358;52.134;5.596;2023-04-01T03:47:07;28.85;;;14.90;;
19205;SDS011;59358;52.134;5.596;2023-04-01T03:49:35;25.60;;;14.88;;
19205;SDS011;59358;52.134;5.596;2023-04-01T03:52:02;24.50;;;14.38;;
19205;SDS011;59358;52.134;5.596;2023-04-01T03:54:29;26.33;;;14.25;;
19205;SDS011;59358;52.134;5.596;2023-04-01T03:56:57;29.00;;;15.95;;
19205;SDS011;59358;52.134;5.596;2023-04-01T03:59:23;29.13;;;14.40;;
19205;SDS011;59358;52.134;5.596;2023-04-01T04:01:51;24.55;;;14.75;;
19205;SDS011;59358;52.134;5.596;2023-04-01T04:04:19;24.52;;;13.82;;
19205;SDS011;59358;52.134;5.596;2023-04-01T04:06:45;28.55;;;14.73;;
19205;SDS011;59358;52.134;5.596;2023-04-01T04:09:13;25.48;;;14.02;;
19205;SDS011;59358;52.134;5.596;2023-04-01T04:11:39;25.63;;;13.88;;
19205;SDS011;59358;52.134;5.596;2023-04-01T04:14:06;25.00;;;13.73;;
19205;SDS011;59358;52.134;5.596;2023-04-01T04:16:34;25.75;;;14.35;;
19205;SDS011;59358;52.134;5.596;2023-04-01T04:19:02;23.60;;;13.50;;
19205;SDS011;59358;52.134;5.596;2023-04-01T04:21:30;24.25;;;14.27;;
19205;SDS011;59358;52.134;5.596;2023-04-01T04:23:57;21.80;;;13.38;;
19205;SDS011;59358;52.134;5.596;2023-04-01T04:26:24;24.27;;;14.15;;
19205;SDS011;59358;52.134;5.596;2023-04-01T04:28:51;30.50;;;14.65;;
19205;SDS011;59358;52.134;5.596;2023-04-01T04:31:20;36.22;;;17.70;;
19205;SDS011;59358;52.134;5.596;2023-04-01T04:33:47;31.17;;;17.15;;
19205;SDS011;59358;52.134;5.596;2023-04-01T04:36:15;41.60;;;18.13;;
19205;SDS011;59358;52.134;5.596;2023-04-01T04:38:43;35.95;;;19.13;;
19205;SDS011;59358;52.134;5.596;2023-04-01T04:41:10;40.78;;;20.27;;
19205;SDS011;59358;52.134;5.596;2023-04-01T04:43:37;41.22;;;20.90;;
19205;SDS011;59358;52.134;5.596;2023-04-01T04:46:05;47.28;;;22.08;;
19205;SDS011;59358;52.134;5.596;2023-04-01T04:48:32;43.20;;;21.10;;
19205;SDS011;59358;52.134;5.596;2023-04-01T04:50:59;51.80;;;23.42;;
19205;SDS011;59358;52.134;5.596;2023-04-01T04:53:26;52.67;;;22.88;;
19205;SDS011;59358;52.134;5.596;2023-04-01T04:55:55;54.15;;;23.88;;
19205;SDS011;59358;52.134;5.596;2023-04-01T04:58:21;60.95;;;23.42;;
19205;SDS011;59358;52.134;5.596;2023-04-01T05:00:48;63.35;;;24.95;;
19205;SDS011;59358;52.134;5.596;2023-04-01T05:03:15;69.82;;;25.02;;
19205;SDS011;59358;52.134;5.596;2023-04-01T05:05:47;62.38;;;24.15;;
19205;SDS011;59358;52.134;5.596;2023-04-01T05:08:15;88.50;;;34.95;;
19205;SDS011;59358;52.134;5.596;2023-04-01T05:10:42;113.20;;;49.03;;
19205;SDS011;59358;52.134;5.596;2023-04-01T05:13:11;82.65;;;34.42;;
19205;SDS011;59358;52.134;5.596;2023-04-01T05:15:37;77.10;;;27.63;;
19205;SDS011;59358;52.134;5.596;2023-04-01T05:18:04;72.88;;;26.45;;
19205;SDS011;59358;52.134;5.596;2023-04-01T05:20:31;84.00;;;27.75;;
19205;SDS011;59358;52.134;5.596;2023-04-01T05:22:58;76.60;;;28.52;;
19205;SDS011;59358;52.134;5.596;2023-04-01T05:25:26;72.15;;;25.90;;
19205;SDS011;59358;52.134;5.596;2023-04-01T05:27:53;78.22;;;28.48;;
19205;SDS011;59358;52.134;5.596;2023-04-01T05:30:21;75.97;;;26.02;;
19205;SDS011;59358;52.134;5.596;2023-04-01T05:32:47;75.93;;;23.60;;
19205;SDS011;59358;52.134;5.596;2023-04-01T05:35:14;70.60;;;24.50;;
19205;SDS011;59358;52.134;5.596;2023-04-01T05:37:41;70.50;;;23.73;;
19205;SDS011;59358;52.134;5.596;2023-04-01T05:40:08;68.30;;;23.13;;
19205;SDS011;59358;52.134;5.596;2023-04-01T05:42:36;63.60;;;21.85;;
19205;SDS011;59358;52.134;5.596;2023-04-01T05:45:03;59.65;;;20.42;;
19205;SDS011;59358;52.134;5.596;2023-04-01T05:47:31;64.07;;;23.95;;
19205;SDS011;59358;52.134;5.596;2023-04-01T05:49:58;59.85;;;20.45;;
19205;SDS011;59358;52.134;5.596;2023-04-01T05:52:25;66.93;;;27.35;;
19205;SDS011;59358;52.134;5.596;2023-04-01T05:54:52;53.95;;;20.40;;
19205;SDS011;59358;52.134;5.596;2023-04-01T05:57:19;64.90;;;23.80;;
19205;SDS011;59358;52.134;5.596;2023-04-01T05:59:45;49.78;;;19.38;;
19205;SDS011;59358;52.134;5.596;2023-04-01T06:02:12;50.72;;;19.55;;
19205;SDS011;59358;52.134;5.596;2023-04-01T06:04:43;39.88;;;16.92;;
19205;SDS011;59358;52.134;5.596;2023-04-01T06:07:11;41.08;;;15.75;;
19205;SDS011;59358;52.134;5.596;2023-04-01T06:09:38;35.25;;;13.65;;
19205;SDS011;59358;52.134;5.596;2023-04-01T06:12:16;36.25;;;14.23;;
19205;SDS011;59358;52.134;5.596;2023-04-01T06:15:03;36.95;;;18.02;;
19205;SDS011;59358;52.134;5.596;2023-04-01T06:17:43;30.00;;;17.00;;
19205;SDS011;59358;52.134;5.596;2023-04-01T06:20:27;27.48;;;16.40;;
19205;SDS011;59358;52.134;5.596;2023-04-01T06:23:07;25.38;;;12.63;;
19205;SDS011;59358;52.134;5.596;2023-04-01T06:25:45;26.10;;;10.35;;
19205;SDS011;59358;52.134;5.596;2023-04-01T06:31:15;20.13;;;9.70;;
19205;SDS011;59358;52.134;5.596;2023-04-01T06:33:55;23.05;;;12.13;;
19205;SDS011;59358;52.134;5.596;2023-04-01T06:36:39;21.20;;;10.68;;
19205;SDS011;59358;52.134;5.596;2023-04-01T06:39:22;25.80;;;12.95;;
19205;SDS011;59358;52.134;5.596;2023-04-01T06:45:02;20.17;;;8.48;;
19205;SDS011;59358;52.134;5.596;2023-04-01T06:47:41;22.13;;;9.43;;
19205;SDS011;59358;52.134;5.596;2023-04-01T06:50:19;17.30;;;8.85;;
19205;SDS011;59358;52.134;5.596;2023-04-01T06:52:56;21.88;;;8.93;;
19205;SDS011;59358;52.134;5.596;2023-04-01T06:55:32;23.48;;;9.02;;
19205;SDS011;59358;52.134;5.596;2023-04-01T06:58:05;22.98;;;8.77;;
19205;SDS011;59358;52.134;5.596;2023-04-01T07:00:40;18.98;;;8.13;;
19205;SDS011;59358;52.134;5.596;2023-04-01T07:03:13;15.85;;;7.28;;
19205;SDS011;59358;52.134;5.596;2023-04-01T07:05:45;16.52;;;7.82;;
19205;SDS011;59358;52.134;5.596;2023-04-01T07:08:15;17.67;;;6.95;;
19205;SDS011;59358;52.134;5.596;2023-04-01T07:10:47;15.90;;;7.15;;
19205;SDS011;59358;52.134;5.596;2023-04-01T07:13:19;11.57;;;5.72;;
19205;SDS011;59358;52.134;5.596;2023-04-01T07:15:51;11.50;;;5.18;;
19205;SDS011;59358;52.134;5.596;2023-04-01T07:18:25;10.43;;;4.93;;
19205;SDS011;59358;52.134;5.596;2023-04-01T07:20:58;10.52;;;4.45;;
19205;SDS011;59358;52.134;5.596;2023-04-01T07:23:28;11.75;;;4.82;;
19205;SDS011;59358;52.134;5.596;2023-04-01T07:26:04;6.78;;;3.63;;
19205;SDS011;59358;52.134;5.596;2023-04-01T07:28:37;7.30;;;3.15;;
19205;SDS011;59358;52.134;5.596;2023-04-01T07:31:07;6.13;;;3.00;;
19205;SDS011;59358;52.134;5.596;2023-04-01T07:33:43;12.05;;;8.20;;
19205;SDS011;59358;52.134;5.596;2023-04-01T07:36:17;8.52;;;6.47;;
19205;SDS011;59358;52.134;5.596;2023-04-01T07:38:52;10.98;;;7.47;;
19205;SDS011;59358;52.134;5.596;2023-04-01T07:41:28;8.75;;;5.85;;
19205;SDS011;59358;52.134;5.596;2023-04-01T07:44:04;10.15;;;5.05;;
19205;SDS011;59358;52.134;5.596;2023-04-01T07:46:43;11.25;;;6.15;;
19205;SDS011;59358;52.134;5.596;2023-04-01T07:49:21;7.70;;;4.88;;
19205;SDS011;59358;52.134;5.596;2023-04-01T07:51:56;8.05;;;4.82;;
19205;SDS011;59358;52.134;5.596;2023-04-01T07:54:30;8.85;;;5.93;;
19205;SDS011;59358;52.134;5.596;2023-04-01T07:57:06;14.10;;;9.00;;
19205;SDS011;59358;52.134;5.596;2023-04-01T07:59:39;10.63;;;6.25;;
19205;SDS011;59358;52.134;5.596;2023-04-01T08:02:16;10.82;;;6.60;;
19205;SDS011;59358;52.134;5.596;2023-04-01T08:04:56;10.32;;;5.30;;
19205;SDS011;59358;52.134;5.596;2023-04-01T08:07:30;8.18;;;4.88;;
19205;SDS011;59358;52.134;5.596;2023-04-01T08:10:09;8.55;;;5.43;;
19205;SDS011;59358;52.134;5.596;2023-04-01T08:12:43;10.52;;;5.05;;
19205;SDS011;59358;52.134;5.596;2023-04-01T08:15:18;7.78;;;4.38;;
19205;SDS011;59358;52.134;5.596;2023-04-01T08:17:54;6.20;;;4.05;;
19205;SDS011;59358;52.134;5.596;2023-04-01T08:20:28;8.25;;;4.18;;
19205;SDS011;59358;52.134;5.596;2023-04-01T08:23:06;5.00;;;3.53;;
19205;SDS011;59358;52.134;5.596;2023-04-01T08:25:40;7.70;;;4.43;;
19205;SDS011;59358;52.134;5.596;2023-04-01T08:28:16;6.35;;;4.05;;
19205;SDS011;59358;52.134;5.596;2023-04-01T08:30:47;8.73;;;5.00;;
19205;SDS011;59358;52.134;5.596;2023-04-01T08:33:19;7.80;;;4.55;;
19205;SDS011;59358;52.134;5.596;2023-04-01T08:35:51;8.18;;;4.93;;
19205;SDS011;59358;52.134;5.596;2023-04-01T08:38:23;8.43;;;4.57;;
19205;SDS011;59358;52.134;5.596;2023-04-01T08:40:57;7.15;;;4.40;;
19205;SDS011;59358;52.134;5.596;2023-04-01T08:43:49;9.27;;;5.35;;
19205;SDS011;59358;52.134;5.596;2023-04-01T08:46:40;9.07;;;5.10;;
19205;SDS011;59358;52.134;5.596;2023-04-01T08:49:28;13.02;;;6.65;;
19205;SDS011;59358;52.134;5.596;2023-04-01T08:52:12;11.60;;;6.65;;
19205;SDS011;59358;52.134;5.596;2023-04-01T08:55:01;15.73;;;7.70;;
19205;SDS011;59358;52.134;5.596;2023-04-01T08:57:49;12.02;;;7.65;;
19205;SDS011;59358;52.134;5.596;2023-04-01T09:00:28;9.93;;;6.72;;
19205;SDS011;59358;52.134;5.596;2023-04-01T09:03:07;11.20;;;7.20;;
19205;SDS011;59358;52.134;5.596;2023-04-01T09:06:19;12.68;;;7.10;;
19205;SDS011;59358;52.134;5.596;2023-04-01T09:09:09;11.10;;;7.35;;
19205;SDS011;59358;52.134;5.596;2023-04-01T09:12:12;11.30;;;7.22;;
19205;SDS011;59358;52.134;5.596;2023-04-01T09:15:05;12.43;;;7.65;;
19205;SDS011;59358;52.134;5.596;2023-04-01T09:18:06;11.93;;;7.75;;
19205;SDS011;59358;52.134;5.596;2023-04-01T09:23:57;12.30;;;7.35;;
19205;SDS011;59358;52.134;5.596;2023-04-01T09:32:57;13.15;;;10.18;;
19205;SDS011;59358;52.134;5.596;2023-04-01T09:35:46;14.02;;;9.32;;
19205;SDS011;59358;52.134;5.596;2023-04-01T09:38:20;17.60;;;10.60;;
19205;SDS011;59358;52.134;5.596;2023-04-01T09:40:53;26.60;;;16.75;;
19205;SDS011;59358;52.134;5.596;2023-04-01T09:43:26;22.65;;;15.45;;
19205;SDS011;59358;52.134;5.596;2023-04-01T09:46:07;15.38;;;11.10;;
19205;SDS011;59358;52.134;5.596;2023-04-01T09:49:02;13.95;;;11.70;;
19205;SDS011;59358;52.134;5.596;2023-04-01T09:51:55;14.93;;;10.80;;
19205;SDS011;59358;52.134;5.596;2023-04-01T09:54:38;16.00;;;11.82;;
19205;SDS011;59358;52.134;5.596;2023-04-01T09:57:40;12.25;;;9.07;;
19205;SDS011;59358;52.134;5.596;2023-04-01T10:14:35;12.38;;;8.93;;
19205;SDS011;59358;52.134;5.596;2023-04-01T10:17:26;9.20;;;7.28;;
19205;SDS011;59358;52.134;5.596;2023-04-01T10:20:14;9.63;;;7.95;;
19205;SDS011;59358;52.134;5.596;2023-04-01T10:23:07;12.13;;;8.55;;
19205;SDS011;59358;52.134;5.596;2023-04-01T10:34:52;9.73;;;6.10;;
19205;SDS011;59358;52.134;5.596;2023-04-01T10:37:40;8.38;;;5.97;;
19205;SDS011;59358;52.134;5.596;2023-04-01T10:40:44;7.72;;;5.45;;
19205;SDS011;59358;52.134;5.596;2023-04-01T10:43:32;8.13;;;6.43;;
19205;SDS011;59358;52.134;5.596;2023-04-01T10:46:36;8.35;;;6.20;;
19205;SDS011;59358;52.134;5.596;2023-04-01T10:55:37;11.00;;;8.48;;
19205;SDS011;59358;52.134;5.596;2023-04-01T11:01:39;11.18;;;7.38;;
19205;SDS011;59358;52.134;5.596;2023-04-01T11:07:49;10.88;;;7.13;;
19205;SDS011;59358;52.134;5.596;2023-04-01T11:28:50;6.38;;;4.50;;
19205;SDS011;59358;52.134;5.596;2023-04-01T11:31:31;6.68;;;4.72;;
19205;SDS011;59358;52.134;5.596;2023-04-01T11:34:09;5.63;;;4.38;;
19205;SDS011;59358;52.134;5.596;2023-04-01T11:36:47;6.53;;;4.63;;
19205;SDS011;59358;52.134;5.596;2023-04-01T11:42:15;8.88;;;4.80;;
19205;SDS011;59358;52.134;5.596;2023-04-01T11:44:51;7.47;;;5.43;;
19205;SDS011;59358;52.134;5.596;2023-04-01T11:50:21;7.90;;;5.45;;
19205;SDS011;59358;52.134;5.596;2023-04-01T11:53:02;7.93;;;5.35;;
19205;SDS011;59358;52.134;5.596;2023-04-01T11:55:46;6.32;;;4.57;;
19205;SDS011;59358;52.134;5.596;2023-04-01T11:58:23;7.03;;;5.00;;
19205;SDS011;59358;52.134;5.596;2023-04-01T12:01:08;8.88;;;5.18;;
19205;SDS011;59358;52.134;5.596;2023-04-01T12:06:48;7.85;;;4.97;;
19205;SDS011;59358;52.134;5.596;2023-04-01T12:09:25;8.90;;;6.20;;
19205;SDS011;59358;52.134;5.596;2023-04-01T12:12:03;7.88;;;5.90;;
19205;SDS011;59358;52.134;5.596;2023-04-01T12:14:41;10.70;;;6.03;;
19205;SDS011;59358;52.134;5.596;2023-04-01T12:17:17;8.93;;;6.15;;
19205;SDS011;59358;52.134;5.596;2023-04-01T12:19:55;7.95;;;6.40;;
19205;SDS011;59358;52.134;5.596;2023-04-01T12:22:33;6.63;;;5.05;;
19205;SDS011;59358;52.134;5.596;2023-04-01T12:25:21;9.52;;;5.97;;
19205;SDS011;59358;52.134;5.596;2023-04-01T12:28:06;11.20;;;6.75;;
19205;SDS011;59358;52.134;5.596;2023-04-01T12:30:47;7.40;;;5.53;;
19205;SDS011;59358;52.134;5.596;2023-04-01T12:33:32;7.70;;;5.53;;
19205;SDS011;59358;52.134;5.596;2023-04-01T12:36:18;7.40;;;5.43;;
19205;SDS011;59358;52.134;5.596;2023-04-01T12:39:20;9.77;;;5.93;;
19205;SDS011;59358;52.134;5.596;2023-04-01T12:42:02;8.18;;;5.78;;
19205;SDS011;59358;52.134;5.596;2023-04-01T12:44:41;9.07;;;6.93;;
19205;SDS011;59358;52.134;5.596;2023-04-01T12:47:30;9.38;;;6.75;;
19205;SDS011;59358;52.134;5.596;2023-04-01T12:50:25;9.48;;;6.57;;
19205;SDS011;59358;52.134;5.596;2023-04-01T12:53:10;8.75;;;6.25;;
19205;SDS011;59358;52.134;5.596;2023-04-01T12:55:47;8.82;;;6.55;;
19205;SDS011;59358;52.134;5.596;2023-04-01T13:01:29;10.70;;;7.15;;
19205;SDS011;59358;52.134;5.596;2023-04-01T13:07:17;11.50;;;6.97;;
19205;SDS011;59358;52.134;5.596;2023-04-01T13:10:05;12.05;;;7.25;;
19205;SDS011;59358;52.134;5.596;2023-04-01T13:12:53;11.68;;;7.72;;
19205;SDS011;59358;52.134;5.596;2023-04-01T13:15:43;12.98;;;7.75;;
19205;SDS011;59358;52.134;5.596;2023-04-01T13:18:16;16.55;;;10.10;;
19205;SDS011;59358;52.134;5.596;2023-04-01T13:20:54;13.25;;;8.23;;
19205;SDS011;59358;52.134;5.596;2023-04-01T13:23:36;10.38;;;6.88;;
19205;SDS011;59358;52.134;5.596;2023-04-01T13:26:13;13.60;;;7.78;;
19205;SDS011;59358;52.134;5.596;2023-04-01T13:28:51;9.52;;;6.60;;
19205;SDS011;59358;52.134;5.596;2023-04-01T13:31:29;8.23;;;5.38;;
19205;SDS011;59358;52.134;5.596;2023-04-01T13:34:08;11.07;;;6.93;;
19205;SDS011;59358;52.134;5.596;2023-04-01T13:36:47;11.95;;;7.28;;
19205;SDS011;59358;52.134;5.596;2023-04-01T13:39:39;16.00;;;9.63;;
19205;SDS011;59358;52.134;5.596;2023-04-01T13:42:32;17.77;;;9.88;;
19205;SDS011;59358;52.134;5.596;2023-04-01T13:45:08;12.32;;;5.65;;
19205;SDS011;59358;52.134;5.596;2023-04-01T13:51:01;15.77;;;9.85;;
19205;SDS011;59358;52.134;5.596;2023-04-01T14:06:57;12.38;;;7.13;;
19205;SDS011;59358;52.134;5.596;2023-04-01T14:09:36;13.60;;;8.00;;
19205;SDS011;59358;52.134;5.596;2023-04-01T14:12:26;18.25;;;12.43;;
19205;SDS011;59358;52.134;5.596;2023-04-01T14:15:01;15.27;;;9.05;;
19205;SDS011;59358;52.134;5.596;2023-04-01T14:17:50;12.13;;;8.25;;
19205;SDS011;59358;52.134;5.596;2023-04-01T14:20:26;12.80;;;8.20;;
19205;SDS011;59358;52.134;5.596;2023-04-01T14:23:07;13.75;;;7.97;;
19205;SDS011;59358;52.134;5.596;2023-04-01T14:25:51;11.98;;;7.28;;
19205;SDS011;59358;52.134;5.596;2023-04-01T14:28:48;14.07;;;7.72;;
19205;SDS011;59358;52.134;5.596;2023-04-01T14:31:34;14.38;;;8.93;;
19205;SDS011;59358;52.134;5.596;2023-04-01T14:34:11;13.80;;;8.90;;
19205;SDS011;59358;52.134;5.596;2023-04-01T14:36:51;12.48;;;8.02;;
19205;SDS011;59358;52.134;5.596;2023-04-01T14:39:36;14.85;;;10.07;;
19205;SDS011;59358;52.134;5.596;2023-04-01T14:42:19;16.52;;;10.45;;
19205;SDS011;59358;52.134;5.596;2023-04-01T14:45:07;15.05;;;9.68;;
19205;SDS011;59358;52.134;5.596;2023-04-01T14:47:48;14.90;;;9.25;;
19205;SDS011;59358;52.134;5.596;2023-04-01T14:50:20;14.35;;;8.68;;
19205;SDS011;59358;52.134;5.596;2023-04-01T14:52:53;10.40;;;7.47;;
19205;SDS011;59358;52.134;5.596;2023-04-01T14:55:28;12.00;;;8.10;;
19205;SDS011;59358;52.134;5.596;2023-04-01T14:58:00;11.82;;;8.45;;
19205;SDS011;59358;52.134;5.596;2023-04-01T15:00:47;10.55;;;7.85;;
19205;SDS011;59358;52.134;5.596;2023-04-01T15:03:19;13.32;;;8.68;;
19205;SDS011;59358;52.134;5.596;2023-04-01T15:05:52;12.60;;;8.70;;
19205;SDS011;59358;52.134;5.596;2023-04-01T15:08:28;12.07;;;8.30;;
19205;SDS011;59358;52.134;5.596;2023-04-01T15:13:55;10.25;;;8.00;;
19205;SDS011;59358;52.134;5.596;2023-04-01T15:16:41;10.43;;;7.53;;
19205;SDS011;59358;52.134;5.596;2023-04-01T15:19:19;11.07;;;7.75;;
19205;SDS011;59358;52.134;5.596;2023-04-01T15:22:07;8.77;;;7.00;;
19205;SDS011;59358;52.134;5.596;2023-04-01T15:24:56;8.02;;;6.80;;
19205;SDS011;59358;52.134;5.596;2023-04-01T15:27:34;10.18;;;7.30;;
19205;SDS011;59358;52.134;5.596;2023-04-01T15:30:18;8.35;;;6.53;;
19205;SDS011;59358;52.134;5.596;2023-04-01T15:32:57;9.40;;;7.18;;
19205;SDS011;59358;52.134;5.596;2023-04-01T15:35:43;9.13;;;6.60;;
19205;SDS011;59358;52.134;5.596;2023-04-01T15:38:20;8.65;;;6.40;;
19205;SDS011;59358;52.134;5.596;2023-04-01T15:41:00;9.00;;;6.65;;
19205;SDS011;59358;52.134;5.596;2023-04-01T15:43:38;9.20;;;7.55;;
19205;SDS011;59358;52.134;5.596;2023-04-01T15:46:11;10.07;;;7.03;;
19205;SDS011;59358;52.134;5.596;2023-04-01T15:48:54;9.27;;;6.38;;
19205;SDS011;59358;52.134;5.596;2023-04-01T15:51:40;8.43;;;6.22;;
19205;SDS011;59358;52.134;5.596;2023-04-01T15:54:22;9.73;;;7.28;;
19205;SDS011;59358;52.134;5.596;2023-04-01T15:56:53;7.30;;;5.97;;
19205;SDS011;59358;52.134;5.596;2023-04-01T15:59:43;6.72;;;5.97;;
19205;SDS011;59358;52.134;5.596;2023-04-01T16:02:21;8.77;;;6.43;;
19205;SDS011;59358;52.134;5.596;2023-04-01T16:04:56;9.15;;;5.88;;
19205;SDS011;59358;52.134;5.596;2023-04-01T16:07:43;7.43;;;6.15;;
19205;SDS011;59358;52.134;5.596;2023-04-01T16:13:24;7.75;;;6.63;;
19205;SDS011;59358;52.134;5.596;2023-04-01T16:16:06;26.10;;;20.25;;
19205;SDS011;59358;52.134;5.596;2023-04-01T16:21:53;10.40;;;7.90;;
19205;SDS011;59358;52.134;5.596;2023-04-01T16:24:28;9.65;;;7.75;;
19205;SDS011;59358;52.134;5.596;2023-04-01T16:27:00;12.18;;;9.70;;
19205;SDS011;59358;52.134;5.596;2023-04-01T16:29:33;10.55;;;7.38;;
19205;SDS011;59358;52.134;5.596;2023-04-01T16:32:14;9.02;;;7.00;;
19205;SDS011;59358;52.134;5.596;2023-04-01T16:35:23;11.23;;;8.10;;
19205;SDS011;59358;52.134;5.596;2023-04-01T16:37:59;10.27;;;7.90;;
19205;SDS011;59358;52.134;5.596;2023-04-01T16:40:35;12.27;;;7.95;;
19205;SDS011;59358;52.134;5.596;2023-04-01T16:43:13;11.93;;;8.80;;
19205;SDS011;59358;52.134;5.596;2023-04-01T16:45:54;13.27;;;9.32;;
19205;SDS011;59358;52.134;5.596;2023-04-01T16:48:36;14.60;;;10.75;;
19205;SDS011;59358;52.134;5.596;2023-04-01T16:51:18;13.13;;;9.75;;
19205;SDS011;59358;52.134;5.596;2023-04-01T16:53:47;13.45;;;9.88;;
19205;SDS011;59358;52.134;5.596;2023-04-01T16:56:20;11.25;;;9.63;;
19205;SDS011;59358;52.134;5.596;2023-04-01T16:58:55;13.65;;;10.35;;
19205;SDS011;59358;52.134;5.596;2023-04-01T17:01:27;13.32;;;9.60;;
19205;SDS011;59358;52.134;5.596;2023-04-01T17:03:59;13.35;;;9.30;;
19205;SDS011;59358;52.134;5.596;2023-04-01T17:06:35;12.45;;;9.65;;
19205;SDS011;59358;52.134;5.596;2023-04-01T17:12:06;13.15;;;9.05;;
19205;SDS011;59358;52.134;5.596;2023-04-01T17:14:39;15.77;;;9.85;;
19205;SDS011;59358;52.134;5.596;2023-04-01T17:17:18;14.57;;;10.77;;